createdAt,value
2023-05-05T00:10:39.785Z,12.30
2023-05-05T01:52:50.952Z,7.55
2023-05-05T01:55:26.025Z,10.48
2023-05-05T01:58:03.007Z,11.13
2023-05-05T02:00:35.761Z,8.48
2023-05-05T02:03:11.413Z,13.55
2023-05-05T02:05:44.983Z,16.13
2023-05-05T02:08:18.781Z,9.00
2023-05-05T02:10:52.280Z,13.52
2023-05-05T02:13:26.657Z,13.30
2023-05-05T02:16:01.770Z,9.60
2023-05-05T02:18:36.104Z,10.88
2023-05-05T02:21:14.917Z,7.82
2023-05-05T02:23:52.094Z,9.00
2023-05-05T02:26:30.476Z,10.30
2023-05-05T02:29:03.577Z,9.73
2023-05-05T02:31:43.283Z,13.00
2023-05-05T02:34:22.846Z,8.02
2023-05-05T02:36:58.838Z,8.00
2023-05-05T02:39:44.920Z,10.82
2023-05-05T02:42:20.835Z,16.15
2023-05-05T02:44:57.351Z,17.55
2023-05-05T02:47:36.740Z,8.30
2023-05-05T02:50:10.198Z,9.85
2023-05-05T02:52:43.021Z,12.93
2023-05-05T02:55:15.857Z,14.98
2023-05-05T02:58:04.910Z,16.55
2023-05-05T03:00:49.080Z,12.13
2023-05-05T03:03:46.966Z,11.48
2023-05-05T03:06:22.156Z,16.60
2023-05-05T03:09:13.908Z,12.30
2023-05-05T03:12:04.869Z,9.70
2023-05-05T03:14:43.774Z,12.95
2023-05-05T03:17:18.708Z,16.13
2023-05-05T03:19:52.278Z,15.05
2023-05-05T03:22:27.939Z,12.45
2023-05-05T03:25:00.144Z,11.73
2023-05-05T03:27:32.762Z,14.57
2023-05-05T03:30:05.843Z,16.67
2023-05-05T03:32:41.165Z,13.57
2023-05-05T03:35:14.486Z,8.27
2023-05-05T03:37:46.692Z,19.15
2023-05-05T03:40:18.952Z,10.13
2023-05-05T03:42:51.260Z,16.35
2023-05-05T03:45:23.482Z,14.73
2023-05-05T03:47:55.860Z,14.43
2023-05-05T03:50:28.205Z,12.60
2023-05-05T03:53:00.431Z,13.75
2023-05-05T03:55:35.760Z,12.70
2023-05-05T03:58:10.739Z,13.60
2023-05-05T04:00:43.033Z,15.05
2023-05-05T04:03:15.497Z,15.70
2023-05-05T04:05:48.059Z,15.40
2023-05-05T04:08:20.349Z,12.48
2023-05-05T04:10:57.733Z,16.83
2023-05-05T04:13:40.389Z,16.40
2023-05-05T04:16:13.128Z,10.60
2023-05-05T04:18:45.500Z,16.90
2023-05-05T04:21:17.824Z,10.52
2023-05-05T04:23:53.088Z,11.10
2023-05-05T04:26:25.680Z,19.00
2023-05-05T04:28:58.075Z,15.07
2023-05-05T04:31:30.907Z,13.50
2023-05-05T04:34:03.256Z,12.50
2023-05-05T04:36:35.517Z,11.85
2023-05-05T04:39:08.986Z,12.10
2023-05-05T04:41:41.350Z,14.13
2023-05-05T04:44:13.600Z,13.18
2023-05-05T04:46:46.094Z,17.25
2023-05-05T04:49:18.383Z,14.57
2023-05-05T04:51:53.453Z,17.48
2023-05-05T04:54:25.845Z,8.52
2023-05-05T04:56:59.513Z,14.30
2023-05-05T04:59:31.835Z,12.05
2023-05-05T05:02:07.253Z,12.32
2023-05-05T05:04:39.690Z,12.13
2023-05-05T05:07:17.119Z,10.52
2023-05-05T05:09:49.421Z,15.80
2023-05-05T05:12:24.232Z,22.52
2023-05-05T05:14:56.433Z,14.00
2023-05-05T05:17:30.404Z,8.90
2023-05-05T05:20:05.196Z,11.20
2023-05-05T05:22:39.098Z,10.45
2023-05-05T05:25:11.575Z,18.35
2023-05-05T05:27:44.137Z,11.27
2023-05-05T05:30:17.264Z,20.02
2023-05-05T05:32:52.444Z,10.57
2023-05-05T05:35:24.627Z,10.55
2023-05-05T05:37:57.419Z,11.55
2023-05-05T05:40:39.126Z,14.73
2023-05-05T05:43:11.758Z,13.30
2023-05-05T05:45:44.303Z,10.48
2023-05-05T05:48:25.342Z,10.57
2023-05-05T05:50:57.540Z,17.55
2023-05-05T05:53:32.634Z,10.48
2023-05-05T05:56:05.278Z,11.40
2023-05-05T05:58:40.882Z,12.60
2023-05-05T06:01:13.249Z,17.20
2023-05-05T06:03:45.887Z,13.43
2023-05-05T06:06:18.331Z,11.40
2023-05-05T06:08:50.592Z,9.35
2023-05-05T06:11:23.140Z,12.63
2023-05-05T06:13:55.654Z,15.98
2023-05-05T06:16:28.066Z,11.05
2023-05-05T06:19:00.420Z,15.38
2023-05-05T06:21:32.612Z,13.77
2023-05-05T06:24:08.078Z,18.77
2023-05-05T06:26:43.143Z,8.77
2023-05-05T06:29:15.586Z,12.50
2023-05-05T06:31:47.864Z,10.32
2023-05-05T06:34:23.222Z,11.90
2023-05-05T06:36:55.706Z,11.10
2023-05-05T06:39:28.055Z,16.77
2023-05-05T06:42:04.408Z,10.55
2023-05-05T06:44:38.323Z,13.52
2023-05-05T06:47:43.231Z,10.90
2023-05-05T06:50:15.782Z,16.38
2023-05-05T06:52:48.096Z,16.92
2023-05-05T06:55:20.618Z,11.50
2023-05-05T06:57:53.111Z,18.55
2023-05-05T07:00:25.898Z,13.30
2023-05-05T07:02:58.460Z,12.18
2023-05-05T07:05:33.817Z,17.10
2023-05-05T07:08:09.637Z,17.25
2023-05-05T07:10:42.504Z,9.55
2023-05-05T07:13:17.784Z,11.07
2023-05-05T07:15:50.341Z,11.82
2023-05-05T07:18:22.592Z,12.48
2023-05-05T07:20:58.138Z,8.02
2023-05-05T07:23:30.546Z,10.95
2023-05-05T07:26:02.856Z,9.80
2023-05-05T07:28:35.797Z,14.02
2023-05-05T07:31:08.159Z,11.43
2023-05-05T07:33:44.418Z,15.80
2023-05-05T07:36:20.427Z,13.18
2023-05-05T07:38:52.626Z,14.40
2023-05-05T07:41:25.157Z,15.02
2023-05-05T07:44:01.460Z,17.17
2023-05-05T07:46:36.730Z,16.95
2023-05-05T07:49:09.125Z,15.13
2023-05-05T07:51:41.306Z,20.90
2023-05-05T07:54:13.508Z,14.93
2023-05-05T07:56:45.899Z,13.30
2023-05-05T07:59:18.249Z,19.30
2023-05-05T08:01:59.530Z,17.25
2023-05-05T08:04:31.692Z,15.50
2023-05-05T08:07:03.895Z,18.77
2023-05-05T08:09:37.542Z,18.00
2023-05-05T08:12:10.213Z,20.45
2023-05-05T08:14:42.737Z,15.10
2023-05-05T08:17:15.024Z,12.50
2023-05-05T08:19:47.165Z,17.20
2023-05-05T08:22:23.034Z,17.25
2023-05-05T08:25:02.428Z,16.35
2023-05-05T08:27:35.657Z,19.98
2023-05-05T08:30:09.365Z,14.32
2023-05-05T08:32:44.453Z,13.23
2023-05-05T08:35:16.870Z,11.77
2023-05-05T08:37:49.142Z,15.65
2023-05-05T08:40:30.118Z,14.73
2023-05-05T08:43:02.373Z,13.82
2023-05-05T08:45:34.549Z,16.17
2023-05-05T08:48:07.288Z,25.35
2023-05-05T08:50:40.915Z,11.43
2023-05-05T08:53:36.099Z,20.08
2023-05-05T08:56:08.967Z,14.98
2023-05-05T08:58:44.265Z,15.05
2023-05-05T09:01:18.204Z,10.68
2023-05-05T09:03:52.720Z,15.60
2023-05-05T09:06:27.556Z,11.80
2023-05-05T09:09:01.197Z,10.30
2023-05-05T09:11:36.033Z,15.80
2023-05-05T09:14:08.296Z,14.95
2023-05-05T09:16:44.446Z,17.38
2023-05-05T09:19:16.728Z,16.55
2023-05-05T09:21:49.795Z,15.45
2023-05-05T09:24:21.995Z,18.80
2023-05-05T09:26:57.388Z,17.23
2023-05-05T09:29:31.559Z,24.70
2023-05-05T09:32:10.795Z,15.77
2023-05-05T09:34:43.010Z,16.02
2023-05-05T09:37:31.263Z,15.65
2023-05-05T09:40:03.586Z,16.23
2023-05-05T09:42:40.082Z,16.65
2023-05-05T09:45:18.551Z,22.02
2023-05-05T09:47:52.017Z,15.27
2023-05-05T09:50:30.961Z,21.50
2023-05-05T09:53:09.415Z,14.77
2023-05-05T09:55:58.142Z,17.17
2023-05-05T09:58:31.702Z,19.77
2023-05-05T10:01:04.079Z,12.57
2023-05-05T10:03:52.426Z,18.83
2023-05-05T10:06:44.225Z,15.98
2023-05-05T10:09:16.621Z,16.20
2023-05-05T10:11:49.051Z,20.95
2023-05-05T10:14:22.361Z,15.20
2023-05-05T10:16:58.625Z,21.67
2023-05-05T10:19:36.332Z,17.55
2023-05-05T10:22:14.760Z,17.30
2023-05-05T10:25:16.256Z,11.55
2023-05-05T10:27:54.342Z,10.30
2023-05-05T10:30:45.131Z,11.27
2023-05-05T10:36:06.839Z,9.88
2023-05-05T10:38:42.807Z,15.13
2023-05-05T10:41:16.335Z,23.83
2023-05-05T10:43:52.796Z,11.30
2023-05-05T10:46:46.449Z,10.13
2023-05-05T10:49:50.489Z,10.25
2023-05-05T10:52:40.911Z,9.45
2023-05-05T10:55:32.230Z,10.02
2023-05-05T10:58:04.921Z,8.38
2023-05-05T11:00:54.887Z,14.20
2023-05-05T11:31:19.241Z,8.63
2023-05-05T11:42:27.390Z,13.73
2023-05-05T11:45:04.132Z,15.02
2023-05-05T12:00:12.037Z,11.07
2023-05-05T12:03:02.587Z,11.95
2023-05-05T12:09:21.680Z,8.23
2023-05-05T12:12:02.171Z,11.82
2023-05-05T12:20:04.891Z,8.27
2023-05-05T12:22:54.536Z,17.55
2023-05-05T12:25:35.848Z,14.10
2023-05-05T12:31:49.043Z,12.00
2023-05-05T12:34:51.291Z,9.43
2023-05-05T12:52:58.286Z,15.30
2023-05-05T13:04:59.350Z,11.00
2023-05-05T13:19:25.329Z,12.43
2023-05-05T13:23:01.091Z,15.43
2023-05-05T13:29:33.027Z,17.60
2023-05-05T13:32:06.577Z,11.52
2023-05-05T13:35:16.585Z,16.67
2023-05-05T13:38:22.154Z,13.23
2023-05-05T13:40:54.978Z,12.98
2023-05-05T13:43:27.100Z,13.68
2023-05-05T13:46:12.259Z,13.95
2023-05-05T13:49:01.777Z,11.02
2023-05-05T13:52:08.914Z,14.63
2023-05-05T13:54:42.396Z,15.02
2023-05-05T13:57:15.330Z,14.90
2023-05-05T13:59:47.442Z,15.95
2023-05-05T14:02:19.761Z,16.50
2023-05-05T14:04:51.895Z,13.75
2023-05-05T14:07:24.167Z,13.77
2023-05-05T14:09:56.606Z,14.85
2023-05-05T14:12:28.803Z,11.45
2023-05-05T14:15:01.222Z,16.60
2023-05-05T14:17:33.502Z,13.43
2023-05-05T14:20:07.331Z,13.15
2023-05-05T14:22:39.521Z,19.42
2023-05-05T14:25:14.812Z,15.95
2023-05-05T14:27:47.278Z,14.05
2023-05-05T14:30:19.435Z,12.52
2023-05-05T14:32:51.787Z,15.32
2023-05-05T14:35:24.000Z,15.48
2023-05-05T14:37:57.002Z,14.10
2023-05-05T14:40:30.478Z,14.23
2023-05-05T14:43:05.550Z,17.08
2023-05-05T14:45:40.518Z,17.05
2023-05-05T14:48:12.878Z,13.18
2023-05-05T14:50:48.789Z,12.68
2023-05-05T14:53:21.007Z,14.48
2023-05-05T14:55:53.210Z,25.13
2023-05-05T14:58:25.551Z,13.48
2023-05-05T15:00:57.961Z,13.43
2023-05-05T15:03:30.203Z,12.45
2023-05-05T15:06:02.532Z,13.00
2023-05-05T15:08:35.114Z,12.00
2023-05-05T15:11:07.664Z,8.23
2023-05-05T15:13:42.604Z,15.18
2023-05-05T15:16:14.918Z,11.32
2023-05-05T15:18:47.378Z,9.43
2023-05-05T15:21:19.711Z,13.13
2023-05-05T15:23:52.295Z,12.70
2023-05-05T15:26:27.698Z,19.50
2023-05-05T15:29:00.146Z,13.05
2023-05-05T15:31:32.558Z,9.23
2023-05-05T15:34:04.957Z,12.45
2023-05-05T15:36:37.239Z,13.68
2023-05-05T15:39:10.321Z,11.50
2023-05-05T15:41:42.721Z,13.75
2023-05-05T15:44:15.528Z,8.52
2023-05-05T15:46:50.241Z,10.43
2023-05-05T15:49:22.903Z,12.75
2023-05-05T15:51:55.268Z,17.52
2023-05-05T15:54:27.507Z,21.10
2023-05-05T15:57:00.161Z,13.98
2023-05-05T15:59:38.564Z,11.80
2023-05-05T16:02:10.954Z,17.35
2023-05-05T16:04:43.218Z,18.00
2023-05-05T16:07:15.811Z,14.82
2023-05-05T16:09:48.091Z,15.98
2023-05-05T16:12:23.625Z,10.77
2023-05-05T16:14:55.984Z,9.60
2023-05-05T16:17:28.433Z,10.05
2023-05-05T16:20:00.684Z,13.02
2023-05-05T16:22:32.935Z,17.30
2023-05-05T16:25:06.099Z,11.77
2023-05-05T16:27:38.619Z,9.00
2023-05-05T16:30:13.086Z,10.70
2023-05-05T16:32:45.448Z,10.63
2023-05-05T16:35:18.327Z,15.82
2023-05-05T16:37:50.711Z,13.18
2023-05-05T16:40:23.042Z,17.60
2023-05-05T16:42:55.363Z,17.00
2023-05-05T16:45:27.690Z,26.05
2023-05-05T16:48:00.036Z,19.33
2023-05-05T16:50:32.367Z,17.13
2023-05-05T16:53:04.775Z,24.40
2023-05-05T16:55:37.714Z,24.60
2023-05-05T16:58:12.654Z,18.33
2023-05-05T17:00:47.052Z,27.75
2023-05-05T17:03:23.094Z,22.35
2023-05-05T17:05:55.463Z,27.00
2023-05-05T17:08:27.864Z,30.08
2023-05-05T17:11:00.332Z,26.83
2023-05-05T17:13:35.839Z,28.75
2023-05-05T17:16:11.349Z,34.63
2023-05-05T17:18:43.729Z,39.08
2023-05-05T17:21:17.771Z,39.97
2023-05-05T17:23:50.589Z,45.95
2023-05-05T17:26:25.044Z,50.58
2023-05-05T17:28:57.580Z,42.95
2023-05-05T17:31:30.130Z,45.08
2023-05-05T17:34:04.880Z,50.83
2023-05-05T17:36:37.262Z,57.35
2023-05-05T17:39:11.891Z,58.22
2023-05-05T17:41:44.170Z,57.90
2023-05-05T17:44:16.399Z,57.67
2023-05-05T17:46:49.284Z,55.40
2023-05-05T17:49:21.846Z,52.10
2023-05-05T17:51:54.061Z,46.25
2023-05-05T17:54:26.370Z,55.55
2023-05-05T17:56:59.939Z,48.95
2023-05-05T17:59:32.766Z,51.60
2023-05-05T18:02:05.300Z,48.63
2023-05-05T18:04:38.439Z,50.10
2023-05-05T18:07:12.686Z,48.40
2023-05-05T18:09:45.106Z,44.65
2023-05-05T18:12:17.716Z,46.70
2023-05-05T18:14:50.047Z,52.33
2023-05-05T18:17:26.558Z,35.17
2023-05-05T18:20:01.220Z,33.60
2023-05-05T18:22:36.839Z,31.13
2023-05-05T18:25:10.723Z,24.40
2023-05-05T18:27:44.243Z,28.90
2023-05-05T18:30:22.402Z,35.42
2023-05-05T18:33:00.174Z,59.95
2023-05-05T18:35:41.735Z,39.85
2023-05-05T18:38:14.065Z,33.00
2023-05-05T18:40:46.443Z,30.92
2023-05-05T18:43:19.319Z,35.67
2023-05-05T18:45:51.793Z,35.72
2023-05-05T18:48:27.961Z,42.30
2023-05-05T18:51:06.259Z,49.42
2023-05-05T18:53:38.603Z,70.45
2023-05-05T18:56:11.556Z,53.58
2023-05-05T18:58:44.515Z,57.83
2023-05-05T19:01:16.849Z,67.40
2023-05-05T19:03:52.363Z,81.35
2023-05-05T19:06:32.472Z,62.83
2023-05-05T19:09:04.960Z,78.88
2023-05-05T19:11:42.005Z,58.50
2023-05-05T19:14:17.957Z,55.95
2023-05-05T19:16:54.366Z,51.70
2023-05-05T19:19:27.820Z,51.63
2023-05-05T19:22:02.958Z,59.03
2023-05-05T19:24:36.243Z,45.63
2023-05-05T19:27:16.419Z,45.78
2023-05-05T19:29:52.834Z,43.45
2023-05-05T19:32:34.828Z,46.55
2023-05-05T19:35:12.414Z,46.15
2023-05-05T19:37:45.088Z,45.85
2023-05-05T19:40:17.671Z,52.63
2023-05-05T19:42:50.513Z,49.67
2023-05-05T19:45:23.000Z,52.13
2023-05-05T19:47:55.297Z,41.00
2023-05-05T19:50:30.500Z,35.58
2023-05-05T19:53:04.966Z,36.25
2023-05-05T19:55:37.533Z,41.88
2023-05-05T19:58:10.035Z,41.70
2023-05-05T20:00:42.689Z,36.85
2023-05-05T20:03:15.320Z,23.38
2023-05-05T20:05:47.653Z,20.73
2023-05-05T20:08:20.018Z,19.15
2023-05-05T20:10:55.262Z,17.77
2023-05-05T20:13:27.610Z,15.60
2023-05-05T20:16:00.602Z,17.77
2023-05-05T20:18:33.507Z,17.67
2023-05-05T20:21:06.237Z,19.48
2023-05-05T20:23:38.655Z,32.22
2023-05-05T20:26:11.805Z,19.10
2023-05-05T20:28:45.926Z,15.23
2023-05-05T20:31:18.553Z,17.52
2023-05-05T20:33:53.846Z,15.32
2023-05-05T20:36:27.743Z,18.10
2023-05-05T20:39:00.339Z,17.67
2023-05-05T20:41:32.985Z,15.75
2023-05-05T20:44:05.429Z,16.58
2023-05-05T20:46:37.903Z,21.27
2023-05-05T20:49:10.291Z,17.52
2023-05-05T20:51:42.558Z,17.65
2023-05-05T20:54:15.088Z,23.40
2023-05-05T20:56:47.811Z,15.88
2023-05-05T20:59:20.145Z,16.80
2023-05-05T21:01:52.411Z,24.27
2023-05-05T21:04:25.368Z,20.45
2023-05-05T21:07:01.673Z,20.15
2023-05-05T21:09:35.591Z,24.05
2023-05-05T21:12:08.066Z,23.08
2023-05-05T21:14:46.657Z,22.88
2023-05-05T21:17:19.994Z,21.63
2023-05-05T21:19:52.840Z,26.38
2023-05-05T21:22:25.227Z,18.27
2023-05-05T21:25:13.813Z,29.15
2023-05-05T21:27:47.874Z,24.95
2023-05-05T21:30:23.226Z,21.88
2023-05-05T21:32:55.760Z,24.27
2023-05-05T21:35:28.111Z,23.90
2023-05-05T21:38:00.224Z,24.70
2023-05-05T21:40:32.422Z,24.63
2023-05-05T21:43:04.805Z,26.67
2023-05-05T21:45:37.045Z,24.05
2023-05-05T21:48:09.387Z,28.10
2023-05-05T21:50:46.855Z,23.02
2023-05-05T21:53:19.232Z,22.27
2023-05-05T21:55:51.849Z,25.13
2023-05-05T21:58:25.266Z,24.83
2023-05-05T22:00:57.447Z,29.10
2023-05-05T22:03:29.663Z,27.25
2023-05-05T22:06:02.010Z,32.50
2023-05-05T22:08:34.222Z,32.00
2023-05-05T22:11:07.112Z,30.73
2023-05-05T22:13:39.642Z,31.83
2023-05-05T22:16:12.430Z,37.28
2023-05-05T22:18:47.768Z,29.90
2023-05-05T22:21:21.396Z,31.58
2023-05-05T22:23:53.675Z,34.03
2023-05-05T22:26:26.073Z,32.50
2023-05-05T22:28:58.858Z,36.17
2023-05-05T22:31:31.120Z,36.30
2023-05-05T22:34:04.182Z,35.30
2023-05-05T22:36:36.313Z,35.72
2023-05-05T22:39:08.754Z,33.85
2023-05-05T22:41:41.390Z,40.85
2023-05-05T22:44:13.688Z,38.55
2023-05-05T22:46:45.986Z,37.42
2023-05-05T22:49:18.218Z,38.17
2023-05-05T22:51:51.497Z,33.88
2023-05-05T22:54:23.852Z,34.20
2023-05-05T22:56:56.355Z,38.85
2023-05-05T22:59:29.403Z,32.85
2023-05-05T23:02:07.338Z,34.40
2023-05-05T23:04:39.738Z,36.05
2023-05-05T23:07:13.371Z,33.38
2023-05-05T23:09:47.415Z,35.55
2023-05-05T23:12:19.631Z,43.20
2023-05-05T23:14:52.799Z,44.30
2023-05-05T23:17:25.015Z,38.50
2023-05-05T23:19:57.458Z,40.58
2023-05-05T23:22:29.676Z,39.83
2023-05-05T23:25:03.617Z,40.10
2023-05-05T23:27:36.081Z,39.67
2023-05-05T23:30:12.322Z,37.38
2023-05-05T23:32:45.233Z,37.97
2023-05-05T23:35:20.562Z,35.35
2023-05-05T23:37:53.361Z,37.22
2023-05-05T23:40:28.879Z,39.55
2023-05-05T23:43:06.791Z,48.15
2023-05-05T23:45:39.417Z,42.45
2023-05-05T23:48:15.625Z,42.45
2023-05-05T23:50:49.208Z,46.33
2023-05-05T23:53:24.398Z,45.20
2023-05-05T23:55:57.232Z,48.85
2023-05-05T23:58:29.564Z,49.80
